Time;durP1;ratioP1;P1;durP2;ratioP2;P2;SDS_P1;SDS_P2;PMS_P1;PMS_P2;Temp;Humidity;BMP_temperature;BMP_pressure;BME280_temperature;BME280_humidity;BME280_pressure;Samples;Min_cycle;Max_cycle;Signal;HPM_P1;HPM_P2
2024/01/25 00:00:57;;;;;;;45.45;5.50;;;;;;;;;;5101026;28;20012;-96
2024/01/25 00:03:22;;;;;;;33.83;3.80;;;;;;;;;;5089464;28;20550;-95
2024/01/25 00:05:47;;;;;;;36.00;4.70;;;;;;;;;;5064845;28;20476;-96
2024/01/25 00:08:12;;;;;;;36.20;4.40;;;;;;;;;;5089640;28;20471;-95
2024/01/25 00:10:38;;;;;;;37.20;4.40;;;;;;;;;;5080536;28;20043;-95
2024/01/25 00:13:03;;;;;;;35.30;4.10;;;;;;;;;;5081942;28;20035;-95
2024/01/25 00:15:28;;;;;;;37.77;4.80;;;;;;;;;;5083759;28;20035;-96
2024/01/25 00:17:53;;;;;;;47.10;4.53;;;;;;;;;;5103521;28;20039;-95
2024/01/25 00:20:19;;;;;;;41.57;3.93;;;;;;;;;;5104154;28;20009;-94
2024/01/25 00:22:46;;;;;;;50.95;4.97;;;;;;;;;;5094959;28;20058;-94
2024/01/25 00:25:11;;;;;;;44.33;4.93;;;;;;;;;;5074009;28;20662;-95
2024/01/25 00:27:36;;;;;;;52.97;5.17;;;;;;;;;;5098758;28;20013;-94
2024/01/25 00:30:01;;;;;;;38.53;4.57;;;;;;;;;;5094932;28;20020;-95
2024/01/25 00:32:27;;;;;;;38.70;4.23;;;;;;;;;;5078415;28;20005;-94
2024/01/25 00:34:52;;;;;;;42.15;5.22;;;;;;;;;;5089957;28;20025;-95
2024/01/25 00:37:17;;;;;;;36.73;4.53;;;;;;;;;;5081440;28;20032;-94
2024/01/25 00:39:43;;;;;;;42.53;4.93;;;;;;;;;;5078889;28;20077;-94
2024/01/25 00:42:11;;;;;;;42.97;4.53;;;;;;;;;;5076848;28;20813;-95
2024/01/25 00:44:37;;;;;;;30.70;4.03;;;;;;;;;;5087215;28;20016;-95
2024/01/25 00:47:02;;;;;;;40.10;4.03;;;;;;;;;;5102769;28;20107;-93
2024/01/25 00:49:28;;;;;;;44.70;5.85;;;;;;;;;;5094118;28;20013;-95
2024/01/25 00:51:58;;;;;;;38.07;4.07;;;;;;;;;;5095754;28;20025;-94
2024/01/25 00:54:23;;;;;;;41.83;4.80;;;;;;;;;;5109345;28;20075;-95
2024/01/25 00:56:50;;;;;;;39.67;4.77;;;;;;;;;;5116479;28;20349;-95
2024/01/25 00:59:16;;;;;;;43.45;4.00;;;;;;;;;;5119018;28;20021;-94
2024/01/25 01:01:42;;;;;;;39.43;4.67;;;;;;;;;;5116114;28;20043;-96
2024/01/25 01:04:08;;;;;;;38.67;5.22;;;;;;;;;;5098741;28;20009;-95
2024/01/25 01:06:33;;;;;;;43.20;4.43;;;;;;;;;;5099936;28;20015;-95
2024/01/25 01:08:59;;;;;;;38.47;4.40;;;;;;;;;;5078960;28;20009;-95
2024/01/25 01:11:25;;;;;;;42.40;4.07;;;;;;;;;;5098826;28;20036;-95
2024/01/25 01:13:51;;;;;;;43.20;4.00;;;;;;;;;;5097212;28;20041;-96
2024/01/25 01:16:16;;;;;;;41.60;4.43;;;;;;;;;;5097952;28;20081;-96
2024/01/25 01:18:41;;;;;;;45.10;4.47;;;;;;;;;;5084545;28;20421;-93
2024/01/25 01:21:06;;;;;;;44.40;4.57;;;;;;;;;;5057265;28;20025;-93
2024/01/25 01:23:31;;;;;;;43.77;5.07;;;;;;;;;;5076460;28;20017;-93
2024/01/25 01:25:57;;;;;;;37.43;4.47;;;;;;;;;;5081134;28;20020;-93
2024/01/25 01:28:22;;;;;;;56.53;5.13;;;;;;;;;;5097890;28;20012;-95
2024/01/25 01:30:47;;;;;;;53.40;5.03;;;;;;;;;;5096310;28;20020;-96
2024/01/25 01:33:12;;;;;;;43.13;4.60;;;;;;;;;;5084113;28;20026;-94
2024/01/25 01:35:37;;;;;;;39.30;4.40;;;;;;;;;;5057518;28;20016;-93
2024/01/25 01:38:03;;;;;;;45.57;5.63;;;;;;;;;;5094676;28;20513;-93
2024/01/25 01:40:28;;;;;;;45.17;4.70;;;;;;;;;;5083662;28;20039;-94
2024/01/25 01:43:00;;;;;;;45.20;4.57;;;;;;;;;;5075511;28;20020;-94
2024/01/25 01:45:25;;;;;;;53.65;4.82;;;;;;;;;;5080969;28;20013;-94
2024/01/25 01:47:50;;;;;;;42.63;4.47;;;;;;;;;;5082107;28;20028;-94
2024/01/25 01:50:16;;;;;;;36.60;3.93;;;;;;;;;;5078288;28;20391;-93
2024/01/25 01:52:42;;;;;;;39.30;3.40;;;;;;;;;;5077641;28;20032;-94
2024/01/25 01:55:07;;;;;;;37.93;3.70;;;;;;;;;;5090305;28;20008;-94
2024/01/25 01:57:33;;;;;;;32.72;3.88;;;;;;;;;;5069083;28;20040;-94
2024/01/25 01:59:58;;;;;;;51.90;4.57;;;;;;;;;;5072089;28;20020;-95
2024/01/25 02:02:25;;;;;;;43.35;4.53;;;;;;;;;;5100763;28;20042;-94
2024/01/25 02:04:50;;;;;;;45.25;4.25;;;;;;;;;;5079687;28;20050;-95
2024/01/25 02:07:15;;;;;;;38.73;4.10;;;;;;;;;;5077480;28;20544;-96
2024/01/25 02:09:40;;;;;;;39.47;3.53;;;;;;;;;;5077357;28;20024;-95
2024/01/25 02:12:06;;;;;;;47.33;4.43;;;;;;;;;;5094825;28;20031;-95
2024/01/25 02:14:32;;;;;;;39.03;4.50;;;;;;;;;;5057757;28;20029;-95
2024/01/25 02:16:57;;;;;;;46.77;4.43;;;;;;;;;;5087237;28;20426;-93
2024/01/25 02:19:22;;;;;;;35.00;3.90;;;;;;;;;;5097588;28;20016;-95
2024/01/25 02:21:48;;;;;;;43.93;4.47;;;;;;;;;;5104004;28;20633;-96
2024/01/25 02:24:13;;;;;;;39.30;4.70;;;;;;;;;;5094388;28;20016;-95
2024/01/25 02:26:38;;;;;;;39.47;3.40;;;;;;;;;;5084933;28;20008;-94
2024/01/25 02:29:04;;;;;;;41.27;4.27;;;;;;;;;;5077220;28;20035;-95
2024/01/25 02:31:31;;;;;;;37.78;3.92;;;;;;;;;;5076856;28;20028;-95
2024/01/25 02:33:56;;;;;;;43.27;4.37;;;;;;;;;;5075153;28;20028;-95
2024/01/25 02:36:22;;;;;;;39.27;4.13;;;;;;;;;;5075959;28;20028;-95
2024/01/25 02:38:47;;;;;;;46.13;4.32;;;;;;;;;;5079419;28;20037;-95
2024/01/25 02:41:12;;;;;;;45.03;3.87;;;;;;;;;;5081937;28;20016;-95
2024/01/25 02:43:37;;;;;;;51.00;4.67;;;;;;;;;;5091144;28;20016;-95
2024/01/25 02:46:03;;;;;;;43.43;3.67;;;;;;;;;;5103515;28;20027;-95
2024/01/25 02:48:28;;;;;;;52.00;4.67;;;;;;;;;;5103498;28;20031;-93
2024/01/25 02:50:53;;;;;;;41.53;4.33;;;;;;;;;;5089564;28;20028;-95
2024/01/25 02:53:18;;;;;;;41.97;4.17;;;;;;;;;;5080301;28;20282;-94
2024/01/25 02:55:44;;;;;;;50.97;5.03;;;;;;;;;;5079429;28;20028;-95
2024/01/25 02:58:10;;;;;;;46.93;4.07;;;;;;;;;;5075138;28;20031;-94
2024/01/25 03:00:35;;;;;;;48.67;4.27;;;;;;;;;;5074087;28;20020;-95
2024/01/25 03:03:00;;;;;;;51.83;4.73;;;;;;;;;;5074533;28;20811;-95
2024/01/25 03:05:26;;;;;;;47.77;4.43;;;;;;;;;;5093819;28;20027;-94
2024/01/25 03:07:51;;;;;;;51.33;5.10;;;;;;;;;;5095418;28;20020;-95
2024/01/25 03:10:16;;;;;;;55.97;4.80;;;;;;;;;;5089318;28;20074;-95
2024/01/25 03:12:41;;;;;;;44.87;5.00;;;;;;;;;;5073255;28;20416;-94
2024/01/25 03:15:07;;;;;;;52.70;4.93;;;;;;;;;;5076486;28;20000;-94
2024/01/25 03:17:32;;;;;;;52.07;5.27;;;;;;;;;;5088409;28;20123;-94
2024/01/25 03:19:57;;;;;;;39.87;4.33;;;;;;;;;;5092055;28;20068;-94
2024/01/25 03:22:22;;;;;;;50.57;5.10;;;;;;;;;;5063178;28;20044;-94
2024/01/25 03:24:48;;;;;;;49.73;5.00;;;;;;;;;;5088481;28;20266;-94
2024/01/25 03:27:14;;;;;;;51.53;5.60;;;;;;;;;;5101907;28;20032;-94
2024/01/25 03:29:45;;;;;;;55.80;4.03;;;;;;;;;;5104221;28;20008;-94
2024/01/25 03:32:11;;;;;;;52.42;4.30;;;;;;;;;;5077804;28;20024;-94
2024/01/25 03:34:36;;;;;;;41.83;3.90;;;;;;;;;;5077538;28;20012;-95
2024/01/25 03:37:01;;;;;;;46.70;5.63;;;;;;;;;;5082734;28;20552;-94
2024/01/25 03:39:26;;;;;;;52.50;4.35;;;;;;;;;;5096796;28;20023;-94
2024/01/25 03:41:51;;;;;;;52.50;3.77;;;;;;;;;;5076015;28;20784;-93
2024/01/25 03:44:18;;;;;;;41.97;3.87;;;;;;;;;;5078758;28;20511;-95
2024/01/25 03:46:43;;;;;;;43.10;3.97;;;;;;;;;;5074652;28;20016;-93
2024/01/25 03:49:09;;;;;;;40.33;3.37;;;;;;;;;;5078159;28;20336;-94
2024/01/25 03:51:34;;;;;;;41.83;4.13;;;;;;;;;;5091092;28;20040;-94
2024/01/25 03:53:59;;;;;;;53.67;5.00;;;;;;;;;;5093243;28;20051;-96
2024/01/25 03:56:25;;;;;;;38.37;3.83;;;;;;;;;;5093463;28;20036;-93
2024/01/25 03:58:51;;;;;;;52.08;3.92;;;;;;;;;;5079256;28;20187;-95
2024/01/25 04:01:16;;;;;;;47.53;4.27;;;;;;;;;;5077947;28;20036;-93
2024/01/25 04:03:41;;;;;;;34.70;4.30;;;;;;;;;;5084662;28;20024;-94
2024/01/25 04:06:06;;;;;;;37.70;3.70;;;;;;;;;;5104175;28;20030;-94
2024/01/25 04:08:32;;;;;;;46.87;3.70;;;;;;;;;;5108600;28;20012;-93
2024/01/25 04:10:57;;;;;;;43.27;4.37;;;;;;;;;;5084135;28;20013;-96
2024/01/25 04:13:22;;;;;;;40.50;4.03;;;;;;;;;;5072136;28;20028;-94
2024/01/25 04:15:47;;;;;;;44.10;5.73;;;;;;;;;;5053133;28;20024;-91
2024/01/25 04:18:12;;;;;;;49.27;5.00;;;;;;;;;;5080299;28;20043;-92
2024/01/25 04:20:38;;;;;;;65.37;4.67;;;;;;;;;;5076465;28;20446;-93
2024/01/25 04:23:03;;;;;;;35.07;3.70;;;;;;;;;;5092739;28;20012;-92
2024/01/25 04:25:28;;;;;;;38.53;4.17;;;;;;;;;;5086801;28;20157;-94
2024/01/25 04:27:53;;;;;;;48.03;4.40;;;;;;;;;;5060348;28;20044;-92
2024/01/25 04:30:18;;;;;;;38.33;3.80;;;;;;;;;;5055832;28;20036;-95
2024/01/25 04:32:44;;;;;;;48.07;4.43;;;;;;;;;;5070428;28;20056;-95
2024/01/25 04:35:09;;;;;;;48.70;4.37;;;;;;;;;;5084010;28;20109;-92
2024/01/25 04:37:35;;;;;;;38.90;4.20;;;;;;;;;;5063371;28;20457;-93
2024/01/25 04:40:00;;;;;;;39.65;4.15;;;;;;;;;;5056305;28;20016;-95
2024/01/25 04:42:27;;;;;;;48.27;4.27;;;;;;;;;;5071376;28;20430;-93
2024/01/25 04:44:52;;;;;;;53.97;4.13;;;;;;;;;;5073209;28;20499;-93
2024/01/25 04:47:17;;;;;;;34.37;3.87;;;;;;;;;;5070788;28;20025;-92
2024/01/25 04:49:43;;;;;;;47.50;4.57;;;;;;;;;;5070862;28;20038;-92
2024/01/25 04:52:08;;;;;;;48.43;4.73;;;;;;;;;;5076269;28;20038;-92
2024/01/25 04:54:33;;;;;;;44.43;4.27;;;;;;;;;;5063005;28;20016;-93
2024/01/25 04:56:58;;;;;;;37.73;3.70;;;;;;;;;;5094974;28;20020;-95
2024/01/25 04:59:23;;;;;;;46.47;3.83;;;;;;;;;;5097516;28;20036;-92
2024/01/25 05:01:49;;;;;;;48.83;3.97;;;;;;;;;;5083047;28;20021;-93
2024/01/25 05:04:15;;;;;;;51.47;5.20;;;;;;;;;;5080591;28;20037;-92
2024/01/25 05:06:41;;;;;;;46.25;4.45;;;;;;;;;;5076117;28;20017;-93
2024/01/25 05:09:08;;;;;;;46.67;4.50;;;;;;;;;;5092198;28;20035;-93
2024/01/25 05:11:33;;;;;;;46.25;4.47;;;;;;;;;;5094227;28;20043;-92
2024/01/25 05:14:00;;;;;;;46.70;3.93;;;;;;;;;;5085600;28;20065;-93
2024/01/25 05:16:25;;;;;;;50.22;4.82;;;;;;;;;;5074348;28;20017;-92
2024/01/25 05:18:50;;;;;;;47.87;4.17;;;;;;;;;;5083160;28;20032;-96
2024/01/25 05:21:16;;;;;;;51.47;4.10;;;;;;;;;;5080756;28;20499;-96
2024/01/25 05:23:41;;;;;;;52.43;4.40;;;;;;;;;;5081418;28;20024;-96
2024/01/25 05:26:07;;;;;;;45.63;4.90;;;;;;;;;;5099856;28;20574;-96
2024/01/25 05:28:32;;;;;;;44.53;4.63;;;;;;;;;;5083023;28;20031;-96
2024/01/25 05:30:58;;;;;;;42.87;4.97;;;;;;;;;;5093094;28;20024;-96
2024/01/25 05:33:23;;;;;;;55.10;4.40;;;;;;;;;;5092923;28;20017;-96
2024/01/25 05:35:50;;;;;;;51.43;4.63;;;;;;;;;;5080381;28;20274;-96
2024/01/25 05:38:15;;;;;;;53.87;4.50;;;;;;;;;;5056624;28;20029;-96
2024/01/25 05:40:41;;;;;;;45.87;4.37;;;;;;;;;;5078059;28;20871;-94
2024/01/25 05:43:06;;;;;;;49.23;4.60;;;;;;;;;;5093391;28;20040;-93
2024/01/25 05:45:31;;;;;;;47.77;4.77;;;;;;;;;;5094864;28;20110;-94
2024/01/25 05:47:56;;;;;;;47.50;4.93;;;;;;;;;;5097104;28;20021;-93
2024/01/25 05:50:22;;;;;;;44.80;4.07;;;;;;;;;;5093689;28;20020;-93
2024/01/25 05:52:47;;;;;;;57.47;4.27;;;;;;;;;;5090865;28;20016;-92
2024/01/25 05:55:14;;;;;;;50.23;4.30;;;;;;;;;;5062632;28;20039;-92
2024/01/25 05:57:39;;;;;;;49.38;4.43;;;;;;;;;;5060314;28;20035;-92
2024/01/25 06:00:07;;;;;;;46.10;5.10;;;;;;;;;;5080213;28;20028;-95
2024/01/25 06:02:32;;;;;;;56.92;5.57;;;;;;;;;;5060623;28;20017;-91
2024/01/25 06:04:58;;;;;;;55.90;5.07;;;;;;;;;;5078421;28;20084;-96
2024/01/25 06:07:25;;;;;;;44.70;4.88;;;;;;;;;;5076712;28;20085;-94
2024/01/25 06:09:50;;;;;;;42.17;5.80;;;;;;;;;;5059100;28;20020;-91
2024/01/25 06:12:15;;;;;;;40.30;4.63;;;;;;;;;;5064449;28;20491;-92
2024/01/25 06:14:40;;;;;;;42.50;4.37;;;;;;;;;;5074103;28;20031;-93
2024/01/25 06:17:06;;;;;;;39.15;4.28;;;;;;;;;;5082197;28;20031;-94
2024/01/25 06:19:33;;;;;;;43.47;4.57;;;;;;;;;;5088316;28;20073;-93
2024/01/25 06:21:58;;;;;;;42.70;5.47;;;;;;;;;;5071714;28;20090;-93
2024/01/25 06:24:23;;;;;;;34.90;4.60;;;;;;;;;;5061084;28;20025;-93
2024/01/25 06:26:48;;;;;;;42.93;4.63;;;;;;;;;;5076923;28;20038;-91
2024/01/25 06:29:14;;;;;;;50.53;5.03;;;;;;;;;;5067221;28;20040;-94
2024/01/25 06:31:41;;;;;;;44.15;5.15;;;;;;;;;;5037582;28;20013;-90
2024/01/25 06:34:06;;;;;;;47.83;6.73;;;;;;;;;;5052359;28;20021;-91
2024/01/25 06:36:31;;;;;;;56.33;8.73;;;;;;;;;;5055822;28;20260;-90
2024/01/25 06:38:57;;;;;;;54.40;7.03;;;;;;;;;;5065111;28;20529;-90
2024/01/25 06:41:22;;;;;;;58.43;6.13;;;;;;;;;;5072760;28;20021;-90
2024/01/25 06:43:47;;;;;;;35.63;5.27;;;;;;;;;;5069916;28;20071;-88
2024/01/25 06:46:12;;;;;;;43.80;4.67;;;;;;;;;;5070417;28;20658;-87
2024/01/25 06:48:37;;;;;;;51.73;5.43;;;;;;;;;;5052539;28;20081;-89
2024/01/25 06:51:03;;;;;;;49.63;5.57;;;;;;;;;;5057427;28;20113;-89
2024/01/25 06:53:28;;;;;;;47.97;6.63;;;;;;;;;;5066779;28;20028;-89
2024/01/25 06:55:53;;;;;;;46.80;5.60;;;;;;;;;;5058796;28;20025;-90
2024/01/25 06:58:18;;;;;;;36.57;4.97;;;;;;;;;;5066642;28;20032;-89
2024/01/25 07:00:45;;;;;;;39.20;5.30;;;;;;;;;;5060095;28;20027;-89
2024/01/25 07:03:10;;;;;;;31.38;4.60;;;;;;;;;;5069665;28;20040;-89
2024/01/25 07:05:35;;;;;;;39.63;5.07;;;;;;;;;;5037031;28;20435;-89
2024/01/25 07:08:01;;;;;;;33.73;4.77;;;;;;;;;;5052391;28;20017;-89
2024/01/25 07:10:26;;;;;;;33.97;4.78;;;;;;;;;;5067240;28;20459;-89
2024/01/25 07:12:52;;;;;;;45.30;5.57;;;;;;;;;;5069962;28;20109;-85
2024/01/25 07:15:17;;;;;;;42.75;5.25;;;;;;;;;;5060406;28;20096;-84
2024/01/25 07:17:43;;;;;;;48.20;5.53;;;;;;;;;;5053418;28;20040;-85
2024/01/25 07:20:09;;;;;;;39.78;4.90;;;;;;;;;;5063190;28;20096;-86
2024/01/25 07:22:34;;;;;;;40.37;5.23;;;;;;;;;;5046842;28;20036;-84
2024/01/25 07:24:59;;;;;;;38.83;5.90;;;;;;;;;;5070034;28;20161;-85
2024/01/25 07:27:24;;;;;;;50.17;5.93;;;;;;;;;;5073920;28;20433;-86
2024/01/25 07:29:50;;;;;;;48.80;6.10;;;;;;;;;;5075446;28;20029;-88
2024/01/25 07:32:15;;;;;;;55.57;6.63;;;;;;;;;;5068255;28;20067;-88
2024/01/25 07:34:40;;;;;;;61.30;6.97;;;;;;;;;;5065268;28;20391;-87
2024/01/25 07:37:05;;;;;;;50.50;6.03;;;;;;;;;;5066785;28;20024;-87
2024/01/25 07:39:30;;;;;;;61.13;7.03;;;;;;;;;;5070007;28;20021;-86
2024/01/25 07:41:56;;;;;;;51.43;6.37;;;;;;;;;;5069705;28;20754;-87
2024/01/25 07:44:21;;;;;;;62.80;8.30;;;;;;;;;;5078748;28;20129;-86
2024/01/25 07:46:47;;;;;;;65.57;7.20;;;;;;;;;;5089205;28;20474;-87
2024/01/25 07:49:12;;;;;;;54.77;5.97;;;;;;;;;;5070817;28;20097;-86
2024/01/25 07:51:37;;;;;;;60.40;7.30;;;;;;;;;;5049745;28;20025;-85
2024/01/25 07:54:02;;;;;;;65.23;7.00;;;;;;;;;;5076281;28;20103;-88
2024/01/25 07:56:28;;;;;;;40.03;5.93;;;;;;;;;;5078365;28;20029;-87
2024/01/25 07:58:53;;;;;;;49.72;6.70;;;;;;;;;;5069297;28;20029;-86
2024/01/25 08:01:20;;;;;;;60.63;7.67;;;;;;;;;;5069222;28;20539;-87
2024/01/25 08:03:45;;;;;;;61.13;6.97;;;;;;;;;;5052752;28;20016;-87
2024/01/25 08:06:11;;;;;;;52.90;7.27;;;;;;;;;;5074386;28;20808;-87
2024/01/25 08:08:36;;;;;;;54.80;7.10;;;;;;;;;;5067782;28;20016;-89
2024/01/25 08:11:04;;;;;;;59.30;6.50;;;;;;;;;;5067377;28;20036;-88
2024/01/25 08:13:29;;;;;;;74.97;7.55;;;;;;;;;;5053894;28;20027;-89
2024/01/25 08:15:55;;;;;;;53.10;6.57;;;;;;;;;;5072233;28;20083;-87
2024/01/25 08:18:22;;;;;;;64.47;7.70;;;;;;;;;;5054940;28;20104;-87
2024/01/25 08:20:48;;;;;;;48.80;6.63;;;;;;;;;;5049534;28;20020;-88
2024/01/25 08:23:13;;;;;;;61.90;8.33;;;;;;;;;;5064478;28;20020;-88
2024/01/25 08:25:39;;;;;;;66.20;8.50;;;;;;;;;;5055350;28;20021;-88
2024/01/25 08:28:04;;;;;;;54.07;8.30;;;;;;;;;;5055393;28;20021;-88
2024/01/25 08:30:29;;;;;;;60.55;7.88;;;;;;;;;;5069062;28;20013;-89
2024/01/25 08:32:55;;;;;;;50.73;9.30;;;;;;;;;;5068702;28;20024;-88
2024/01/25 08:35:20;;;;;;;52.73;8.80;;;;;;;;;;5055809;28;20055;-88
2024/01/25 08:37:45;;;;;;;58.50;8.87;;;;;;;;;;5049501;28;20025;-89
2024/01/25 08:40:11;;;;;;;51.50;8.57;;;;;;;;;;5049493;28;20820;-89
2024/01/25 08:42:36;;;;;;;52.87;9.27;;;;;;;;;;5063564;28;20103;-89
2024/01/25 08:45:02;;;;;;;53.10;9.00;;;;;;;;;;5023119;28;1109956;-89
2024/01/25 08:47:27;;;;;;;58.60;9.30;;;;;;;;;;5070018;28;20442;-89
2024/01/25 08:49:52;;;;;;;52.07;8.60;;;;;;;;;;5069737;28;20017;-89
2024/01/25 08:52:17;;;;;;;60.80;9.73;;;;;;;;;;5049413;28;20037;-90
2024/01/25 08:54:43;;;;;;;73.80;10.70;;;;;;;;;;5069933;28;20023;-89
2024/01/25 08:57:09;;;;;;;58.80;9.90;;;;;;;;;;5052392;28;20054;-87
2024/01/25 08:59:37;;;;;;;76.43;12.67;;;;;;;;;;5069477;28;20043;-90
2024/01/25 09:02:04;;;;;;;66.68;13.20;;;;;;;;;;5080969;28;20028;-88
2024/01/25 09:04:29;;;;;;;63.05;12.43;;;;;;;;;;5091059;28;20020;-89
2024/01/25 09:06:54;;;;;;;59.13;11.13;;;;;;;;;;5087545;28;20024;-90
2024/01/25 09:09:20;;;;;;;72.30;13.13;;;;;;;;;;5069524;28;20444;-88
2024/01/25 09:11:45;;;;;;;63.67;11.57;;;;;;;;;;5075328;28;20039;-88
2024/01/25 09:14:10;;;;;;;67.43;12.67;;;;;;;;;;5090754;28;20039;-90
2024/01/25 09:16:37;;;;;;;51.37;11.93;;;;;;;;;;5094560;28;20043;-89
2024/01/25 09:19:02;;;;;;;66.30;11.80;;;;;;;;;;5075152;28;20073;-89
2024/01/25 09:21:27;;;;;;;55.30;11.60;;;;;;;;;;5088672;28;20009;-88
2024/01/25 09:23:56;;;;;;;49.60;11.00;;;;;;;;;;5071319;28;20107;-87
2024/01/25 09:26:21;;;;;;;48.15;11.68;;;;;;;;;;5086443;28;20043;-87
2024/01/25 09:28:46;;;;;;;50.30;11.73;;;;;;;;;;5082417;28;20464;-87
2024/01/25 09:31:11;;;;;;;52.27;13.33;;;;;;;;;;5076212;28;20059;-87
2024/01/25 09:33:37;;;;;;;58.03;13.57;;;;;;;;;;5093198;28;20451;-87
2024/01/25 09:36:02;;;;;;;53.10;13.30;;;;;;;;;;5092904;28;20028;-88
2024/01/25 09:38:27;;;;;;;58.83;15.23;;;;;;;;;;5065572;28;20379;-89
2024/01/25 09:40:53;;;;;;;65.50;14.37;;;;;;;;;;5053249;28;21020;-88
2024/01/25 09:43:19;;;;;;;50.40;16.83;;;;;;;;;;5080361;28;20020;-87
2024/01/25 09:45:46;;;;;;;55.65;15.05;;;;;;;;;;5038822;28;20499;-86
2024/01/25 09:48:11;;;;;;;47.53;14.00;;;;;;;;;;5073374;28;20166;-88
2024/01/25 09:50:37;;;;;;;52.73;14.17;;;;;;;;;;5037767;28;20056;-88
2024/01/25 09:53:03;;;;;;;54.67;15.70;;;;;;;;;;5090129;28;20824;-87
2024/01/25 09:55:32;;;;;;;51.60;14.55;;;;;;;;;;5093407;28;20020;-89
2024/01/25 09:57:58;;;;;;;47.13;13.60;;;;;;;;;;5058532;28;20040;-86
2024/01/25 10:00:23;;;;;;;53.40;13.03;;;;;;;;;;5054606;28;20085;-89
2024/01/25 10:02:49;;;;;;;51.87;12.37;;;;;;;;;;5078736;28;20020;-87
2024/01/25 10:05:15;;;;;;;58.60;14.57;;;;;;;;;;5092860;28;20035;-87
2024/01/25 10:07:44;;;;;;;55.27;13.67;;;;;;;;;;5092054;28;20115;-87
2024/01/25 10:10:10;;;;;;;48.60;12.13;;;;;;;;;;5092246;28;20028;-86
2024/01/25 10:12:35;;;;;;;50.22;12.57;;;;;;;;;;5095059;28;20027;-86
2024/01/25 10:15:00;;;;;;;47.00;11.50;;;;;;;;;;5085084;28;20085;-88
2024/01/25 10:17:27;;;;;;;50.13;12.23;;;;;;;;;;5071670;28;20452;-88
2024/01/25 10:19:53;;;;;;;46.40;12.18;;;;;;;;;;5064687;28;20020;-88
2024/01/25 10:22:18;;;;;;;51.75;10.85;;;;;;;;;;5071207;28;20027;-88
2024/01/25 10:24:44;;;;;;;57.87;12.07;;;;;;;;;;5055639;28;20027;-88
2024/01/25 10:27:10;;;;;;;48.67;12.73;;;;;;;;;;5051493;28;20040;-88
2024/01/25 10:29:35;;;;;;;50.72;12.88;;;;;;;;;;5055609;28;20032;-88
2024/01/25 10:32:02;;;;;;;51.63;13.37;;;;;;;;;;5058200;28;20116;-88
2024/01/25 10:34:28;;;;;;;52.83;13.02;;;;;;;;;;5052378;28;20507;-88
2024/01/25 10:36:53;;;;;;;51.75;12.95;;;;;;;;;;5064303;28;20147;-87
2024/01/25 10:39:19;;;;;;;44.83;11.70;;;;;;;;;;5061813;28;20438;-88
2024/01/25 10:41:50;;;;;;;45.70;11.13;;;;;;;;;;5054101;28;20017;-88
2024/01/25 10:44:15;;;;;;;51.38;11.60;;;;;;;;;;5054152;28;20068;-88
2024/01/25 10:46:41;;;;;;;63.50;11.83;;;;;;;;;;5058158;28;20055;-88
2024/01/25 10:49:07;;;;;;;56.27;11.87;;;;;;;;;;5071998;28;20011;-89
2024/01/25 10:51:33;;;;;;;44.03;10.98;;;;;;;;;;5072895;28;20021;-90
2024/01/25 10:53:58;;;;;;;48.90;11.43;;;;;;;;;;5076379;28;20031;-88
2024/01/25 10:56:24;;;;;;;48.20;11.32;;;;;;;;;;5075611;28;20016;-90
2024/01/25 10:58:49;;;;;;;47.73;10.83;;;;;;;;;;5056523;28;20476;-91
2024/01/25 11:01:17;;;;;;;45.37;9.97;;;;;;;;;;5083210;28;20023;-90
2024/01/25 11:03:46;;;;;;;51.92;9.55;;;;;;;;;;5082178;28;20021;-90
2024/01/25 11:06:12;;;;;;;47.95;10.00;;;;;;;;;;5065220;28;20013;-91
2024/01/25 11:08:38;;;;;;;42.77;9.90;;;;;;;;;;5057332;28;20716;-91
2024/01/25 11:11:08;;;;;;;40.75;9.20;;;;;;;;;;5074089;28;20052;-89
2024/01/25 11:13:33;;;;;;;44.63;9.37;;;;;;;;;;5074649;28;20092;-90
2024/01/25 11:15:58;;;;;;;43.43;9.27;;;;;;;;;;5056482;28;20690;-90
2024/01/25 11:18:27;;;;;;;41.20;9.77;;;;;;;;;;5075966;28;20032;-91
2024/01/25 11:20:52;;;;;;;39.90;8.45;;;;;;;;;;5054947;28;20461;-90
2024/01/25 11:23:17;;;;;;;42.00;8.60;;;;;;;;;;5055866;28;20025;-91
2024/01/25 11:25:46;;;;;;;43.93;9.97;;;;;;;;;;5055803;28;20063;-91
2024/01/25 11:28:13;;;;;;;50.53;10.80;;;;;;;;;;5058560;28;20016;-91
2024/01/25 11:30:39;;;;;;;48.00;12.23;;;;;;;;;;5074441;28;20024;-91
2024/01/25 11:33:05;;;;;;;52.00;12.10;;;;;;;;;;5075757;28;20483;-90
2024/01/25 11:35:30;;;;;;;50.63;11.85;;;;;;;;;;5075110;28;20084;-90
2024/01/25 11:37:56;;;;;;;56.93;13.03;;;;;;;;;;5071669;28;20158;-91
2024/01/25 11:40:22;;;;;;;51.67;15.43;;;;;;;;;;5073619;28;20020;-90
2024/01/25 11:42:47;;;;;;;39.87;11.63;;;;;;;;;;5072692;28;20020;-90
2024/01/25 11:45:14;;;;;;;43.42;11.98;;;;;;;;;;5072771;28;20026;-89
2024/01/25 11:47:39;;;;;;;47.10;11.97;;;;;;;;;;5071875;28;20016;-90
2024/01/25 11:50:05;;;;;;;48.70;12.60;;;;;;;;;;5055428;28;20289;-90
2024/01/25 11:52:33;;;;;;;46.50;11.88;;;;;;;;;;5073963;28;20070;-89
2024/01/25 11:54:59;;;;;;;56.37;12.83;;;;;;;;;;5072619;28;20110;-90
2024/01/25 11:57:26;;;;;;;48.38;12.68;;;;;;;;;;5074007;28;20040;-89
2024/01/25 11:59:52;;;;;;;53.30;12.48;;;;;;;;;;5070140;28;21826;-90
2024/01/25 12:02:17;;;;;;;50.83;12.50;;;;;;;;;;5052215;28;20048;-89
2024/01/25 12:04:42;;;;;;;42.57;11.30;;;;;;;;;;5054820;28;20013;-90
2024/01/25 12:07:07;;;;;;;53.83;12.00;;;;;;;;;;5053064;28;20344;-89
2024/01/25 12:09:33;;;;;;;46.10;10.80;;;;;;;;;;5056116;28;20017;-90
2024/01/25 12:12:00;;;;;;;48.77;11.00;;;;;;;;;;5070092;28;20028;-89
2024/01/25 12:14:25;;;;;;;44.45;11.63;;;;;;;;;;5057939;28;20468;-88
2024/01/25 12:16:50;;;;;;;41.13;10.33;;;;;;;;;;5052766;28;20107;-90
2024/01/25 12:19:15;;;;;;;44.17;11.80;;;;;;;;;;5073740;28;20055;-90
2024/01/25 12:21:43;;;;;;;47.50;12.13;;;;;;;;;;5072966;28;20016;-89
2024/01/25 12:24:09;;;;;;;40.90;11.70;;;;;;;;;;5072223;28;20021;-90
2024/01/25 12:26:35;;;;;;;52.17;11.37;;;;;;;;;;5073895;28;20016;-90
2024/01/25 12:29:00;;;;;;;39.45;11.27;;;;;;;;;;5072374;28;20430;-90
2024/01/25 12:31:25;;;;;;;37.77;11.03;;;;;;;;;;5072551;28;20016;-90
2024/01/25 12:33:51;;;;;;;41.43;11.50;;;;;;;;;;5069523;28;20138;-90
2024/01/25 12:36:16;;;;;;;43.33;12.13;;;;;;;;;;5051971;28;20028;-91
2024/01/25 12:38:41;;;;;;;40.47;10.90;;;;;;;;;;5053312;28;20098;-90
2024/01/25 12:41:07;;;;;;;36.30;10.87;;;;;;;;;;5061137;28;20024;-90
2024/01/25 12:43:32;;;;;;;37.65;10.63;;;;;;;;;;5069951;28;20480;-90
2024/01/25 12:45:57;;;;;;;41.30;11.43;;;;;;;;;;5071017;28;20369;-90
2024/01/25 12:48:22;;;;;;;33.27;9.70;;;;;;;;;;5072575;28;20017;-89
2024/01/25 12:50:47;;;;;;;34.07;9.40;;;;;;;;;;5076654;28;20370;-90
2024/01/25 12:53:14;;;;;;;37.87;9.60;;;;;;;;;;5081127;28;20008;-89
2024/01/25 12:55:39;;;;;;;40.42;10.02;;;;;;;;;;5078047;28;20028;-91
2024/01/25 12:58:04;;;;;;;37.77;8.83;;;;;;;;;;5077064;28;20029;-89
2024/01/25 13:00:30;;;;;;;35.87;10.73;;;;;;;;;;5075700;28;20013;-90
2024/01/25 13:02:56;;;;;;;37.97;9.73;;;;;;;;;;5076836;28;20525;-89
2024/01/25 13:05:21;;;;;;;31.35;9.85;;;;;;;;;;5076285;28;20086;-90
2024/01/25 13:07:46;;;;;;;30.93;10.03;;;;;;;;;;5076997;28;20017;-90
2024/01/25 13:10:12;;;;;;;34.93;9.40;;;;;;;;;;5076700;28;20008;-90
2024/01/25 13:12:37;;;;;;;37.43;9.77;;;;;;;;;;5073973;28;20025;-90
2024/01/25 13:15:03;;;;;;;42.67;9.83;;;;;;;;;;5075978;28;20020;-90
2024/01/25 13:17:28;;;;;;;34.97;8.48;;;;;;;;;;5075072;28;20468;-88
2024/01/25 13:19:53;;;;;;;33.70;10.00;;;;;;;;;;5075468;28;20426;-90
2024/01/25 13:22:21;;;;;;;43.53;11.80;;;;;;;;;;5075779;28;20460;-91
2024/01/25 13:24:46;;;;;;;35.33;9.38;;;;;;;;;;5074370;28;20489;-91
2024/01/25 13:27:11;;;;;;;35.03;9.93;;;;;;;;;;5059712;28;20092;-93
2024/01/25 13:29:36;;;;;;;38.57;10.00;;;;;;;;;;5060597;28;20059;-91
2024/01/25 13:32:01;;;;;;;40.83;11.50;;;;;;;;;;5059288;28;20036;-91
2024/01/25 13:34:27;;;;;;;42.53;10.47;;;;;;;;;;5059877;28;20009;-93
2024/01/25 13:36:52;;;;;;;41.33;11.27;;;;;;;;;;5071877;28;20089;-92
2024/01/25 13:39:18;;;;;;;41.43;12.70;;;;;;;;;;5080151;28;20487;-95
2024/01/25 13:41:46;;;;;;;47.10;12.32;;;;;;;;;;5077651;28;20107;-93
2024/01/25 13:44:11;;;;;;;38.13;11.02;;;;;;;;;;5067117;28;20032;-94
2024/01/25 13:46:36;;;;;;;45.47;13.37;;;;;;;;;;5062634;28;20483;-94
2024/01/25 13:49:02;;;;;;;37.60;10.90;;;;;;;;;;5067984;28;20008;-92
2024/01/25 13:51:27;;;;;;;42.03;13.17;;;;;;;;;;5091094;28;20653;-95
2024/01/25 13:53:52;;;;;;;31.37;11.43;;;;;;;;;;5071943;28;20084;-93
2024/01/25 13:56:17;;;;;;;44.93;13.83;;;;;;;;;;5082115;28;20012;-94
2024/01/25 13:58:43;;;;;;;43.30;12.03;;;;;;;;;;5064087;28;20147;-94
2024/01/25 14:01:08;;;;;;;49.10;16.60;;;;;;;;;;5059190;28;20021;-94
2024/01/25 14:03:34;;;;;;;41.83;12.73;;;;;;;;;;5051555;28;20044;-93
2024/01/25 14:09:02;;;;;;;41.42;13.18;;;;;;;;;;5090538;28;20047;-92
2024/01/25 14:11:28;;;;;;;44.17;13.17;;;;;;;;;;5069402;28;20279;-93
2024/01/25 14:13:54;;;;;;;48.22;13.68;;;;;;;;;;5078758;28;20013;-92
2024/01/25 14:16:19;;;;;;;58.07;15.83;;;;;;;;;;5078123;28;20023;-94
2024/01/25 14:18:44;;;;;;;48.47;14.40;;;;;;;;;;5061374;28;20110;-93